sensor_id;sensor_type;location;lat;lon;timestamp;P1;durP1;ratioP1;P2;durP2;ratioP2
23052;SDS011;11694;-36.632;-64.318;2022-08-19T00:00:38;21.77;;;2.30;;
23052;SDS011;11694;-36.632;-64.318;2022-08-19T00:03:05;13.50;;;2.37;;
23052;SDS011;11694;-36.632;-64.318;2022-08-19T00:05:33;11.97;;;2.07;;
23052;SDS011;11694;-36.632;-64.318;2022-08-19T00:08:00;13.07;;;2.70;;
23052;SDS011;11694;-36.632;-64.318;2022-08-19T00:10:27;11.53;;;2.57;;
23052;SDS011;11694;-36.632;-64.318;2022-08-19T00:12:55;10.07;;;2.70;;
23052;SDS011;11694;-36.632;-64.318;2022-08-19T00:15:22;7.87;;;2.53;;
23052;SDS011;11694;-36.632;-64.318;2022-08-19T00:17:49;4.77;;;1.80;;
23052;SDS011;11694;-36.632;-64.318;2022-08-19T00:20:17;9.80;;;1.63;;
23052;SDS011;11694;-36.632;-64.318;2022-08-19T00:22:46;5.17;;;0.90;;
23052;SDS011;11694;-36.632;-64.318;2022-08-19T00:25:14;2.13;;;0.80;;
23052;SDS011;11694;-36.632;-64.318;2022-08-19T00:27:42;3.20;;;0.87;;
23052;SDS011;11694;-36.632;-64.318;2022-08-19T00:30:09;11.67;;;1.40;;
23052;SDS011;11694;-36.632;-64.318;2022-08-19T00:32:37;6.97;;;1.37;;
23052;SDS011;11694;-36.632;-64.318;2022-08-19T00:35:05;5.93;;;1.20;;
23052;SDS011;11694;-36.632;-64.318;2022-08-19T00:37:33;4.63;;;0.93;;
23052;SDS011;11694;-36.632;-64.318;2022-08-19T00:40:00;2.07;;;0.50;;
23052;SDS011;11694;-36.632;-64.318;2022-08-19T00:42:31;4.27;;;0.90;;
23052;SDS011;11694;-36.632;-64.318;2022-08-19T00:44:59;2.57;;;0.80;;
23052;SDS011;11694;-36.632;-64.318;2022-08-19T00:47:26;4.00;;;0.93;;
23052;SDS011;11694;-36.632;-64.318;2022-08-19T00:49:54;4.10;;;0.90;;
23052;SDS011;11694;-36.632;-64.318;2022-08-19T00:52:28;6.90;;;1.80;;
23052;SDS011;11694;-36.632;-64.318;2022-08-19T00:54:59;7.83;;;2.73;;
23052;SDS011;11694;-36.632;-64.318;2022-08-19T00:57:29;6.93;;;1.10;;
23052;SDS011;11694;-36.632;-64.318;2022-08-19T01:00:00;3.00;;;1.10;;
23052;SDS011;11694;-36.632;-64.318;2022-08-19T01:02:31;2.43;;;1.10;;
23052;SDS011;11694;-36.632;-64.318;2022-08-19T01:05:00;3.80;;;1.40;;
23052;SDS011;11694;-36.632;-64.318;2022-08-19T01:07:30;9.60;;;1.70;;
23052;SDS011;11694;-36.632;-64.318;2022-08-19T01:09:59;4.40;;;1.40;;
23052;SDS011;11694;-36.632;-64.318;2022-08-19T01:12:27;4.30;;;1.27;;
23052;SDS011;11694;-36.632;-64.318;2022-08-19T01:14:54;2.33;;;1.10;;
23052;SDS011;11694;-36.632;-64.318;2022-08-19T01:17:22;12.80;;;2.60;;
23052;SDS011;11694;-36.632;-64.318;2022-08-19T01:19:50;9.17;;;1.53;;
23052;SDS011;11694;-36.632;-64.318;2022-08-19T01:24:53;11.10;;;1.70;;
23052;SDS011;11694;-36.632;-64.318;2022-08-19T01:27:20;8.23;;;1.63;;
23052;SDS011;11694;-36.632;-64.318;2022-08-19T01:29:48;9.57;;;1.20;;
23052;SDS011;11694;-36.632;-64.318;2022-08-19T01:32:16;12.43;;;1.60;;
23052;SDS011;11694;-36.632;-64.318;2022-08-19T01:34:44;6.93;;;0.97;;
23052;SDS011;11694;-36.632;-64.318;2022-08-19T01:37:12;2.93;;;1.10;;
23052;SDS011;11694;-36.632;-64.318;2022-08-19T01:39:42;18.27;;;2.23;;
23052;SDS011;11694;-36.632;-64.318;2022-08-19T01:42:10;14.90;;;2.70;;
23052;SDS011;11694;-36.632;-64.318;2022-08-19T01:44:38;14.03;;;3.07;;
23052;SDS011;11694;-36.632;-64.318;2022-08-19T01:47:06;14.03;;;3.03;;
23052;SDS011;11694;-36.632;-64.318;2022-08-19T01:49:37;16.63;;;1.80;;
23052;SDS011;11694;-36.632;-64.318;2022-08-19T01:52:04;12.63;;;2.33;;
23052;SDS011;11694;-36.632;-64.318;2022-08-19T01:54:32;9.00;;;1.40;;
23052;SDS011;11694;-36.632;-64.318;2022-08-19T01:57:01;7.57;;;1.90;;
23052;SDS011;11694;-36.632;-64.318;2022-08-19T01:59:34;10.87;;;1.47;;
23052;SDS011;11694;-36.632;-64.318;2022-08-19T02:02:02;11.17;;;1.77;;
23052;SDS011;11694;-36.632;-64.318;2022-08-19T02:04:33;9.10;;;2.13;;
23052;SDS011;11694;-36.632;-64.318;2022-08-19T02:07:00;7.27;;;1.40;;
23052;SDS011;11694;-36.632;-64.318;2022-08-19T02:09:28;5.37;;;1.10;;
23052;SDS011;11694;-36.632;-64.318;2022-08-19T02:11:59;7.83;;;1.20;;
23052;SDS011;11694;-36.632;-64.318;2022-08-19T02:14:26;7.07;;;1.00;;
23052;SDS011;11694;-36.632;-64.318;2022-08-19T02:16:54;2.13;;;1.07;;
23052;SDS011;11694;-36.632;-64.318;2022-08-19T02:19:21;2.40;;;1.17;;
23052;SDS011;11694;-36.632;-64.318;2022-08-19T02:21:48;6.20;;;1.47;;
23052;SDS011;11694;-36.632;-64.318;2022-08-19T02:24:15;7.50;;;1.60;;
23052;SDS011;11694;-36.632;-64.318;2022-08-19T02:26:42;3.03;;;1.47;;
23052;SDS011;11694;-36.632;-64.318;2022-08-19T02:29:10;5.23;;;2.10;;
23052;SDS011;11694;-36.632;-64.318;2022-08-19T02:31:37;6.40;;;1.40;;
23052;SDS011;11694;-36.632;-64.318;2022-08-19T02:34:04;7.43;;;2.73;;
23052;SDS011;11694;-36.632;-64.318;2022-08-19T02:36:31;11.57;;;4.20;;
23052;SDS011;11694;-36.632;-64.318;2022-08-19T02:38:58;12.00;;;2.43;;
23052;SDS011;11694;-36.632;-64.318;2022-08-19T02:41:26;3.60;;;1.83;;
23052;SDS011;11694;-36.632;-64.318;2022-08-19T02:43:56;4.10;;;2.50;;
23052;SDS011;11694;-36.632;-64.318;2022-08-19T02:46:25;8.63;;;4.47;;
23052;SDS011;11694;-36.632;-64.318;2022-08-19T02:48:56;6.40;;;2.87;;
23052;SDS011;11694;-36.632;-64.318;2022-08-19T02:51:27;5.23;;;2.70;;
23052;SDS011;11694;-36.632;-64.318;2022-08-19T02:53:56;12.47;;;3.30;;
23052;SDS011;11694;-36.632;-64.318;2022-08-19T02:56:25;7.70;;;3.53;;
23052;SDS011;11694;-36.632;-64.318;2022-08-19T02:58:55;6.63;;;3.00;;
23052;SDS011;11694;-36.632;-64.318;2022-08-19T03:01:25;3.23;;;1.60;;
23052;SDS011;11694;-36.632;-64.318;2022-08-19T03:03:54;3.53;;;1.70;;
23052;SDS011;11694;-36.632;-64.318;2022-08-19T03:06:21;1.50;;;1.10;;
23052;SDS011;11694;-36.632;-64.318;2022-08-19T03:08:49;3.37;;;1.57;;
23052;SDS011;11694;-36.632;-64.318;2022-08-19T03:11:18;3.40;;;1.00;;
23052;SDS011;11694;-36.632;-64.318;2022-08-19T03:13:51;2.27;;;1.10;;
23052;SDS011;11694;-36.632;-64.318;2022-08-19T03:16:20;6.43;;;1.70;;
23052;SDS011;11694;-36.632;-64.318;2022-08-19T03:18:50;2.97;;;1.13;;
23052;SDS011;11694;-36.632;-64.318;2022-08-19T03:21:24;3.97;;;1.10;;
23052;SDS011;11694;-36.632;-64.318;2022-08-19T03:24:02;2.00;;;1.10;;
23052;SDS011;11694;-36.632;-64.318;2022-08-19T03:26:32;2.40;;;1.00;;
23052;SDS011;11694;-36.632;-64.318;2022-08-19T03:29:03;3.20;;;0.80;;
23052;SDS011;11694;-36.632;-64.318;2022-08-19T03:31:31;1.87;;;0.93;;
23052;SDS011;11694;-36.632;-64.318;2022-08-19T03:33:59;2.03;;;1.13;;
23052;SDS011;11694;-36.632;-64.318;2022-08-19T03:36:26;2.33;;;0.93;;
23052;SDS011;11694;-36.632;-64.318;2022-08-19T03:38:58;2.17;;;0.80;;
23052;SDS011;11694;-36.632;-64.318;2022-08-19T03:41:28;2.40;;;1.13;;
23052;SDS011;11694;-36.632;-64.318;2022-08-19T03:44:02;1.10;;;0.80;;
23052;SDS011;11694;-36.632;-64.318;2022-08-19T03:46:34;1.70;;;0.70;;
23052;SDS011;11694;-36.632;-64.318;2022-08-19T03:49:02;2.43;;;1.00;;
23052;SDS011;11694;-36.632;-64.318;2022-08-19T03:51:35;5.97;;;1.00;;
23052;SDS011;11694;-36.632;-64.318;2022-08-19T03:54:05;2.30;;;0.90;;
23052;SDS011;11694;-36.632;-64.318;2022-08-19T03:56:35;0.70;;;0.70;;
23052;SDS011;11694;-36.632;-64.318;2022-08-19T03:59:04;1.77;;;0.83;;
23052;SDS011;11694;-36.632;-64.318;2022-08-19T04:01:34;1.13;;;0.60;;
23052;SDS011;11694;-36.632;-64.318;2022-08-19T04:04:01;1.37;;;0.70;;
23052;SDS011;11694;-36.632;-64.318;2022-08-19T04:06:31;1.63;;;0.70;;
23052;SDS011;11694;-36.632;-64.318;2022-08-19T04:09:00;2.77;;;1.00;;
23052;SDS011;11694;-36.632;-64.318;2022-08-19T04:11:31;1.23;;;0.60;;
23052;SDS011;11694;-36.632;-64.318;2022-08-19T04:14:09;2.20;;;0.90;;
23052;SDS011;11694;-36.632;-64.318;2022-08-19T04:16:38;1.57;;;1.20;;
23052;SDS011;11694;-36.632;-64.318;2022-08-19T04:19:05;4.40;;;1.20;;
23052;SDS011;11694;-36.632;-64.318;2022-08-19T04:21:33;3.43;;;1.20;;
23052;SDS011;11694;-36.632;-64.318;2022-08-19T04:24:01;7.60;;;1.27;;
23052;SDS011;11694;-36.632;-64.318;2022-08-19T04:26:30;2.33;;;1.53;;
23052;SDS011;11694;-36.632;-64.318;2022-08-19T04:29:06;2.83;;;1.60;;
23052;SDS011;11694;-36.632;-64.318;2022-08-19T04:31:38;1.80;;;1.20;;
23052;SDS011;11694;-36.632;-64.318;2022-08-19T04:34:08;1.30;;;0.90;;
23052;SDS011;11694;-36.632;-64.318;2022-08-19T04:36:36;1.97;;;0.77;;
23052;SDS011;11694;-36.632;-64.318;2022-08-19T04:39:10;2.87;;;0.60;;
23052;SDS011;11694;-36.632;-64.318;2022-08-19T04:41:41;3.63;;;0.80;;
23052;SDS011;11694;-36.632;-64.318;2022-08-19T04:44:26;1.20;;;0.47;;
23052;SDS011;11694;-36.632;-64.318;2022-08-19T04:46:56;0.60;;;0.50;;
23052;SDS011;11694;-36.632;-64.318;2022-08-19T04:49:23;1.90;;;0.50;;
23052;SDS011;11694;-36.632;-64.318;2022-08-19T04:51:51;0.87;;;0.50;;
23052;SDS011;11694;-36.632;-64.318;2022-08-19T04:54:20;1.97;;;0.87;;
23052;SDS011;11694;-36.632;-64.318;2022-08-19T04:56:51;1.40;;;0.60;;
23052;SDS011;11694;-36.632;-64.318;2022-08-19T04:59:19;2.10;;;1.10;;
23052;SDS011;11694;-36.632;-64.318;2022-08-19T05:01:47;3.40;;;1.10;;
23052;SDS011;11694;-36.632;-64.318;2022-08-19T05:04:16;1.00;;;0.60;;
23052;SDS011;11694;-36.632;-64.318;2022-08-19T05:06:45;0.80;;;0.60;;
23052;SDS011;11694;-36.632;-64.318;2022-08-19T05:09:13;0.77;;;0.57;;
23052;SDS011;11694;-36.632;-64.318;2022-08-19T05:11:41;2.00;;;0.50;;
23052;SDS011;11694;-36.632;-64.318;2022-08-19T05:14:09;0.57;;;0.57;;
23052;SDS011;11694;-36.632;-64.318;2022-08-19T05:16:38;0.47;;;0.40;;
23052;SDS011;11694;-36.632;-64.318;2022-08-19T05:19:06;0.67;;;0.40;;
23052;SDS011;11694;-36.632;-64.318;2022-08-19T05:21:51;0.50;;;0.30;;
23052;SDS011;11694;-36.632;-64.318;2022-08-19T05:24:37;0.73;;;0.43;;
23052;SDS011;11694;-36.632;-64.318;2022-08-19T05:27:04;0.50;;;0.33;;
23052;SDS011;11694;-36.632;-64.318;2022-08-19T05:29:31;0.53;;;0.30;;
23052;SDS011;11694;-36.632;-64.318;2022-08-19T05:32:03;1.10;;;0.40;;
23052;SDS011;11694;-36.632;-64.318;2022-08-19T05:34:35;0.60;;;0.20;;
23052;SDS011;11694;-36.632;-64.318;2022-08-19T05:37:03;1.90;;;0.33;;
23052;SDS011;11694;-36.632;-64.318;2022-08-19T05:39:36;0.53;;;0.40;;
23052;SDS011;11694;-36.632;-64.318;2022-08-19T05:42:10;0.90;;;0.40;;
23052;SDS011;11694;-36.632;-64.318;2022-08-19T05:44:40;0.40;;;0.33;;
23052;SDS011;11694;-36.632;-64.318;2022-08-19T05:47:12;0.67;;;0.50;;
23052;SDS011;11694;-36.632;-64.318;2022-08-19T05:49:41;1.50;;;0.80;;
23052;SDS011;11694;-36.632;-64.318;2022-08-19T05:52:10;2.63;;;1.77;;
23052;SDS011;11694;-36.632;-64.318;2022-08-19T05:54:41;1.43;;;0.80;;
23052;SDS011;11694;-36.632;-64.318;2022-08-19T05:57:09;1.60;;;0.87;;
23052;SDS011;11694;-36.632;-64.318;2022-08-19T05:59:37;0.80;;;0.47;;
23052;SDS011;11694;-36.632;-64.318;2022-08-19T06:02:04;0.30;;;0.30;;
23052;SDS011;11694;-36.632;-64.318;2022-08-19T06:04:32;0.97;;;0.37;;
23052;SDS011;11694;-36.632;-64.318;2022-08-19T06:06:59;0.40;;;0.40;;
23052;SDS011;11694;-36.632;-64.318;2022-08-19T06:09:27;3.10;;;0.43;;
23052;SDS011;11694;-36.632;-64.318;2022-08-19T06:11:56;0.90;;;0.27;;
23052;SDS011;11694;-36.632;-64.318;2022-08-19T06:14:30;1.17;;;0.40;;
23052;SDS011;11694;-36.632;-64.318;2022-08-19T06:17:00;0.33;;;0.30;;
23052;SDS011;11694;-36.632;-64.318;2022-08-19T06:19:28;3.10;;;0.27;;
23052;SDS011;11694;-36.632;-64.318;2022-08-19T06:21:56;0.27;;;0.27;;
23052;SDS011;11694;-36.632;-64.318;2022-08-19T06:24:26;0.20;;;0.20;;
23052;SDS011;11694;-36.632;-64.318;2022-08-19T06:26:55;1.90;;;0.40;;
23052;SDS011;11694;-36.632;-64.318;2022-08-19T06:29:24;0.43;;;0.30;;
23052;SDS011;11694;-36.632;-64.318;2022-08-19T06:31:54;1.13;;;0.37;;
23052;SDS011;11694;-36.632;-64.318;2022-08-19T06:34:23;0.60;;;0.60;;
23052;SDS011;11694;-36.632;-64.318;2022-08-19T06:36:54;2.00;;;0.50;;
23052;SDS011;11694;-36.632;-64.318;2022-08-19T06:39:23;0.30;;;0.30;;
23052;SDS011;11694;-36.632;-64.318;2022-08-19T06:41:54;0.30;;;0.30;;
23052;SDS011;11694;-36.632;-64.318;2022-08-19T06:44:24;0.17;;;0.17;;
23052;SDS011;11694;-36.632;-64.318;2022-08-19T06:46:53;0.83;;;0.30;;
23052;SDS011;11694;-36.632;-64.318;2022-08-19T06:49:21;1.17;;;0.10;;
23052;SDS011;11694;-36.632;-64.318;2022-08-19T06:51:49;0.20;;;0.20;;
23052;SDS011;11694;-36.632;-64.318;2022-08-19T06:54:16;0.87;;;0.40;;
23052;SDS011;11694;-36.632;-64.318;2022-08-19T06:56:44;0.10;;;0.10;;
23052;SDS011;11694;-36.632;-64.318;2022-08-19T06:59:16;1.40;;;0.10;;
23052;SDS011;11694;-36.632;-64.318;2022-08-19T07:01:47;0.33;;;0.27;;
23052;SDS011;11694;-36.632;-64.318;2022-08-19T07:04:19;0.27;;;0.27;;
23052;SDS011;11694;-36.632;-64.318;2022-08-19T07:06:48;0.10;;;0.10;;
23052;SDS011;11694;-36.632;-64.318;2022-08-19T07:09:17;0.17;;;0.17;;
23052;SDS011;11694;-36.632;-64.318;2022-08-19T07:11:49;1.70;;;0.30;;
23052;SDS011;11694;-36.632;-64.318;2022-08-19T07:14:19;0.30;;;0.20;;
23052;SDS011;11694;-36.632;-64.318;2022-08-19T07:16:49;0.37;;;0.37;;
23052;SDS011;11694;-36.632;-64.318;2022-08-19T07:19:18;0.20;;;0.20;;
23052;SDS011;11694;-36.632;-64.318;2022-08-19T07:21:47;0.33;;;0.33;;
23052;SDS011;11694;-36.632;-64.318;2022-08-19T07:24:16;0.30;;;0.20;;
23052;SDS011;11694;-36.632;-64.318;2022-08-19T07:26:44;0.73;;;0.40;;
23052;SDS011;11694;-36.632;-64.318;2022-08-19T07:29:11;0.63;;;0.30;;
23052;SDS011;11694;-36.632;-64.318;2022-08-19T07:31:39;0.53;;;0.37;;
23052;SDS011;11694;-36.632;-64.318;2022-08-19T07:34:07;0.30;;;0.30;;
23052;SDS011;11694;-36.632;-64.318;2022-08-19T07:36:36;0.47;;;0.27;;
23052;SDS011;11694;-36.632;-64.318;2022-08-19T07:39:07;0.30;;;0.30;;
23052;SDS011;11694;-36.632;-64.318;2022-08-19T07:41:36;0.20;;;0.20;;
23052;SDS011;11694;-36.632;-64.318;2022-08-19T07:44:05;0.23;;;0.20;;
23052;SDS011;11694;-36.632;-64.318;2022-08-19T07:46:36;0.50;;;0.50;;
23052;SDS011;11694;-36.632;-64.318;2022-08-19T07:49:09;0.40;;;0.30;;
23052;SDS011;11694;-36.632;-64.318;2022-08-19T07:51:43;0.60;;;0.20;;
23052;SDS011;11694;-36.632;-64.318;2022-08-19T07:54:19;0.90;;;0.60;;
23052;SDS011;11694;-36.632;-64.318;2022-08-19T07:56:47;0.67;;;0.53;;
23052;SDS011;11694;-36.632;-64.318;2022-08-19T07:59:16;0.97;;;0.70;;
23052;SDS011;11694;-36.632;-64.318;2022-08-19T08:01:45;1.30;;;1.20;;
23052;SDS011;11694;-36.632;-64.318;2022-08-19T08:04:14;1.00;;;1.00;;
23052;SDS011;11694;-36.632;-64.318;2022-08-19T08:07:00;0.67;;;0.63;;
23052;SDS011;11694;-36.632;-64.318;2022-08-19T08:09:45;0.57;;;0.47;;
23052;SDS011;11694;-36.632;-64.318;2022-08-19T08:12:16;0.33;;;0.20;;
23052;SDS011;11694;-36.632;-64.318;2022-08-19T08:14:52;3.10;;;0.40;;
23052;SDS011;11694;-36.632;-64.318;2022-08-19T08:17:21;0.77;;;0.30;;
23052;SDS011;11694;-36.632;-64.318;2022-08-19T08:19:50;0.80;;;0.30;;
23052;SDS011;11694;-36.632;-64.318;2022-08-19T08:22:18;0.93;;;0.30;;
23052;SDS011;11694;-36.632;-64.318;2022-08-19T08:25:13;0.30;;;0.30;;
23052;SDS011;11694;-36.632;-64.318;2022-08-19T08:27:44;0.43;;;0.43;;
23052;SDS011;11694;-36.632;-64.318;2022-08-19T08:30:14;0.40;;;0.30;;
23052;SDS011;11694;-36.632;-64.318;2022-08-19T08:32:48;1.33;;;0.30;;
23052;SDS011;11694;-36.632;-64.318;2022-08-19T08:35:17;1.80;;;0.63;;
23052;SDS011;11694;-36.632;-64.318;2022-08-19T08:37:48;0.30;;;0.30;;
23052;SDS011;11694;-36.632;-64.318;2022-08-19T08:43:33;0.43;;;0.20;;
23052;SDS011;11694;-36.632;-64.318;2022-08-19T08:45:35;0.87;;;0.20;;
23052;SDS011;11694;-36.632;-64.318;2022-08-19T08:48:19;1.27;;;0.40;;
23052;SDS011;11694;-36.632;-64.318;2022-08-19T08:50:50;1.17;;;0.40;;
23052;SDS011;11694;-36.632;-64.318;2022-08-19T08:53:22;1.53;;;0.53;;
23052;SDS011;11694;-36.632;-64.318;2022-08-19T08:55:51;0.90;;;0.37;;
23052;SDS011;11694;-36.632;-64.318;2022-08-19T08:58:28;0.20;;;0.20;;
23052;SDS011;11694;-36.632;-64.318;2022-08-19T09:01:17;0.20;;;0.20;;
23052;SDS011;11694;-36.632;-64.318;2022-08-19T09:03:45;0.47;;;0.40;;
23052;SDS011;11694;-36.632;-64.318;2022-08-19T09:11:37;0.47;;;0.40;;
23052;SDS011;11694;-36.632;-64.318;2022-08-19T09:14:32;2.33;;;0.40;;
23052;SDS011;11694;-36.632;-64.318;2022-08-19T09:17:07;1.13;;;0.47;;
23052;SDS011;11694;-36.632;-64.318;2022-08-19T09:19:36;1.93;;;0.30;;
23052;SDS011;11694;-36.632;-64.318;2022-08-19T09:22:25;0.73;;;0.73;;
23052;SDS011;11694;-36.632;-64.318;2022-08-19T09:24:52;4.47;;;3.20;;
23052;SDS011;11694;-36.632;-64.318;2022-08-19T09:27:20;8.67;;;3.87;;
23052;SDS011;11694;-36.632;-64.318;2022-08-19T09:29:52;5.90;;;3.63;;
23052;SDS011;11694;-36.632;-64.318;2022-08-19T09:32:20;9.43;;;4.97;;
23052;SDS011;11694;-36.632;-64.318;2022-08-19T09:34:48;8.57;;;6.03;;
23052;SDS011;11694;-36.632;-64.318;2022-08-19T09:37:18;6.60;;;4.70;;
23052;SDS011;11694;-36.632;-64.318;2022-08-19T09:39:45;6.10;;;3.67;;
23052;SDS011;11694;-36.632;-64.318;2022-08-19T09:42:12;5.60;;;2.57;;
23052;SDS011;11694;-36.632;-64.318;2022-08-19T09:44:40;3.87;;;2.40;;
23052;SDS011;11694;-36.632;-64.318;2022-08-19T09:47:08;5.40;;;2.97;;
23052;SDS011;11694;-36.632;-64.318;2022-08-19T09:49:36;5.77;;;3.53;;
23052;SDS011;11694;-36.632;-64.318;2022-08-19T09:52:05;9.53;;;6.77;;
23052;SDS011;11694;-36.632;-64.318;2022-08-19T09:54:34;17.57;;;11.17;;
23052;SDS011;11694;-36.632;-64.318;2022-08-19T09:57:01;21.40;;;13.23;;
23052;SDS011;11694;-36.632;-64.318;2022-08-19T09:59:28;25.60;;;17.33;;
23052;SDS011;11694;-36.632;-64.318;2022-08-19T10:01:55;21.73;;;14.17;;
23052;SDS011;11694;-36.632;-64.318;2022-08-19T10:04:23;15.83;;;9.77;;
23052;SDS011;11694;-36.632;-64.318;2022-08-19T10:07:09;10.23;;;6.07;;
23052;SDS011;11694;-36.632;-64.318;2022-08-19T10:09:37;9.67;;;5.43;;
23052;SDS011;11694;-36.632;-64.318;2022-08-19T10:12:07;9.60;;;4.73;;
23052;SDS011;11694;-36.632;-64.318;2022-08-19T10:14:34;9.53;;;4.23;;
23052;SDS011;11694;-36.632;-64.318;2022-08-19T10:17:02;7.90;;;5.63;;
23052;SDS011;11694;-36.632;-64.318;2022-08-19T10:19:29;9.93;;;6.67;;
23052;SDS011;11694;-36.632;-64.318;2022-08-19T10:22:04;9.10;;;6.07;;
23052;SDS011;11694;-36.632;-64.318;2022-08-19T10:24:33;17.93;;;11.07;;
23052;SDS011;11694;-36.632;-64.318;2022-08-19T10:27:00;18.87;;;10.80;;
23052;SDS011;11694;-36.632;-64.318;2022-08-19T10:29:29;18.03;;;11.10;;
23052;SDS011;11694;-36.632;-64.318;2022-08-19T10:31:57;16.17;;;9.50;;
23052;SDS011;11694;-36.632;-64.318;2022-08-19T10:34:30;15.13;;;10.23;;
23052;SDS011;11694;-36.632;-64.318;2022-08-19T10:36:57;15.53;;;9.77;;
23052;SDS011;11694;-36.632;-64.318;2022-08-19T10:39:26;17.17;;;11.87;;
23052;SDS011;11694;-36.632;-64.318;2022-08-19T10:41:56;21.23;;;13.23;;
23052;SDS011;11694;-36.632;-64.318;2022-08-19T10:44:23;16.20;;;10.73;;
23052;SDS011;11694;-36.632;-64.318;2022-08-19T10:46:51;17.83;;;10.73;;
23052;SDS011;11694;-36.632;-64.318;2022-08-19T10:49:18;19.17;;;12.00;;
23052;SDS011;11694;-36.632;-64.318;2022-08-19T10:51:45;27.83;;;18.23;;
23052;SDS011;11694;-36.632;-64.318;2022-08-19T10:54:32;23.90;;;15.30;;
23052;SDS011;11694;-36.632;-64.318;2022-08-19T10:57:17;25.93;;;15.30;;
23052;SDS011;11694;-36.632;-64.318;2022-08-19T10:59:44;19.93;;;11.77;;
23052;SDS011;11694;-36.632;-64.318;2022-08-19T11:02:12;19.93;;;12.90;;
23052;SDS011;11694;-36.632;-64.318;2022-08-19T11:04:40;16.97;;;11.77;;
23052;SDS011;11694;-36.632;-64.318;2022-08-19T11:07:07;17.63;;;11.67;;
23052;SDS011;11694;-36.632;-64.318;2022-08-19T11:09:38;22.27;;;12.93;;
23052;SDS011;11694;-36.632;-64.318;2022-08-19T11:12:08;26.47;;;14.70;;
23052;SDS011;11694;-36.632;-64.318;2022-08-19T11:14:38;11.47;;;7.47;;
23052;SDS011;11694;-36.632;-64.318;2022-08-19T11:17:05;10.50;;;6.03;;
23052;SDS011;11694;-36.632;-64.318;2022-08-19T11:19:32;6.27;;;3.00;;
23052;SDS011;11694;-36.632;-64.318;2022-08-19T11:22:00;6.40;;;2.60;;
23052;SDS011;11694;-36.632;-64.318;2022-08-19T11:24:28;8.37;;;4.20;;
23052;SDS011;11694;-36.632;-64.318;2022-08-19T11:27:00;4.87;;;3.53;;
23052;SDS011;11694;-36.632;-64.318;2022-08-19T11:29:32;5.60;;;3.60;;
23052;SDS011;11694;-36.632;-64.318;2022-08-19T11:32:02;11.00;;;3.40;;
23052;SDS011;11694;-36.632;-64.318;2022-08-19T11:34:31;6.53;;;3.83;;
23052;SDS011;11694;-36.632;-64.318;2022-08-19T11:37:00;19.13;;;5.23;;
23052;SDS011;11694;-36.632;-64.318;2022-08-19T11:39:29;8.63;;;4.00;;
23052;SDS011;11694;-36.632;-64.318;2022-08-19T11:41:57;141.43;;;13.10;;
23052;SDS011;11694;-36.632;-64.318;2022-08-19T11:44:25;39.77;;;6.33;;
23052;SDS011;11694;-36.632;-64.318;2022-08-19T11:46:55;10.10;;;5.10;;
23052;SDS011;11694;-36.632;-64.318;2022-08-19T11:49:23;5.57;;;2.10;;
23052;SDS011;11694;-36.632;-64.318;2022-08-19T11:51:50;4.10;;;1.90;;
23052;SDS011;11694;-36.632;-64.318;2022-08-19T11:54:17;6.93;;;2.33;;
23052;SDS011;11694;-36.632;-64.318;2022-08-19T11:56:44;8.20;;;2.47;;
23052;SDS011;11694;-36.632;-64.318;2022-08-19T11:59:13;4.27;;;2.13;;
23052;SDS011;11694;-36.632;-64.318;2022-08-19T12:01:40;15.93;;;3.20;;
23052;SDS011;11694;-36.632;-64.318;2022-08-19T12:04:07;9.23;;;4.27;;
23052;SDS011;11694;-36.632;-64.318;2022-08-19T12:06:36;12.07;;;3.77;;
23052;SDS011;11694;-36.632;-64.318;2022-08-19T12:09:06;6.30;;;2.70;;
23052;SDS011;11694;-36.632;-64.318;2022-08-19T12:11:35;10.10;;;3.53;;
23052;SDS011;11694;-36.632;-64.318;2022-08-19T12:14:03;14.60;;;4.30;;
23052;SDS011;11694;-36.632;-64.318;2022-08-19T12:16:32;11.30;;;2.43;;
23052;SDS011;11694;-36.632;-64.318;2022-08-19T12:19:00;7.33;;;1.67;;
23052;SDS011;11694;-36.632;-64.318;2022-08-19T12:21:29;11.67;;;2.07;;
23052;SDS011;11694;-36.632;-64.318;2022-08-19T12:23:59;4.97;;;2.40;;
23052;SDS011;11694;-36.632;-64.318;2022-08-19T12:26:28;6.23;;;1.73;;
23052;SDS011;11694;-36.632;-64.318;2022-08-19T12:28:56;7.23;;;2.50;;
23052;SDS011;11694;-36.632;-64.318;2022-08-19T12:31:25;19.40;;;3.37;;
23052;SDS011;11694;-36.632;-64.318;2022-08-19T12:33:53;4.97;;;1.50;;
23052;SDS011;11694;-36.632;-64.318;2022-08-19T12:36:21;3.10;;;1.50;;
23052;SDS011;11694;-36.632;-64.318;2022-08-19T12:38:49;4.70;;;1.50;;
23052;SDS011;11694;-36.632;-64.318;2022-08-19T12:41:17;7.50;;;1.60;;
23052;SDS011;11694;-36.632;-64.318;2022-08-19T12:43:47;8.57;;;2.20;;
23052;SDS011;11694;-36.632;-64.318;2022-08-19T12:46:15;10.60;;;2.43;;
23052;SDS011;11694;-36.632;-64.318;2022-08-19T12:51:44;36.10;;;6.53;;
23052;SDS011;11694;-36.632;-64.318;2022-08-19T12:54:14;8.47;;;2.57;;
23052;SDS011;11694;-36.632;-64.318;2022-08-19T12:56:41;6.33;;;3.00;;
23052;SDS011;11694;-36.632;-64.318;2022-08-19T12:59:10;10.87;;;3.27;;
23052;SDS011;11694;-36.632;-64.318;2022-08-19T13:01:37;6.73;;;1.80;;
23052;SDS011;11694;-36.632;-64.318;2022-08-19T13:04:04;3.93;;;2.33;;
23052;SDS011;11694;-36.632;-64.318;2022-08-19T13:06:31;6.03;;;1.50;;
23052;SDS011;11694;-36.632;-64.318;2022-08-19T13:08:59;10.33;;;2.10;;
23052;SDS011;11694;-36.632;-64.318;2022-08-19T13:11:26;7.07;;;1.10;;
23052;SDS011;11694;-36.632;-64.318;2022-08-19T13:13:58;2.87;;;1.67;;
23052;SDS011;11694;-36.632;-64.318;2022-08-19T13:16:25;9.80;;;1.70;;
23052;SDS011;11694;-36.632;-64.318;2022-08-19T13:18:53;3.53;;;1.13;;
23052;SDS011;11694;-36.632;-64.318;2022-08-19T13:21:22;3.47;;;1.00;;
23052;SDS011;11694;-36.632;-64.318;2022-08-19T13:23:51;5.23;;;1.60;;
23052;SDS011;11694;-36.632;-64.318;2022-08-19T13:26:19;5.27;;;0.90;;
23052;SDS011;11694;-36.632;-64.318;2022-08-19T13:28:47;13.67;;;1.70;;
23052;SDS011;11694;-36.632;-64.318;2022-08-19T13:31:33;4.40;;;0.80;;
23052;SDS011;11694;-36.632;-64.318;2022-08-19T13:34:25;2.33;;;0.60;;
23052;SDS011;11694;-36.632;-64.318;2022-08-19T13:36:57;7.50;;;1.17;;
23052;SDS011;11694;-36.632;-64.318;2022-08-19T13:39:25;7.73;;;1.97;;
23052;SDS011;11694;-36.632;-64.318;2022-08-19T13:41:52;28.20;;;4.63;;
23052;SDS011;11694;-36.632;-64.318;2022-08-19T13:44:19;21.17;;;4.97;;
23052;SDS011;11694;-36.632;-64.318;2022-08-19T13:46:47;14.53;;;2.40;;
23052;SDS011;11694;-36.632;-64.318;2022-08-19T13:49:17;9.13;;;1.27;;
23052;SDS011;11694;-36.632;-64.318;2022-08-19T13:51:45;4.57;;;1.70;;
23052;SDS011;11694;-36.632;-64.318;2022-08-19T13:54:13;2.87;;;1.30;;
23052;SDS011;11694;-36.632;-64.318;2022-08-19T13:56:41;4.37;;;0.87;;
23052;SDS011;11694;-36.632;-64.318;2022-08-19T13:59:10;5.23;;;1.00;;
23052;SDS011;11694;-36.632;-64.318;2022-08-19T14:01:38;11.67;;;1.17;;
23052;SDS011;11694;-36.632;-64.318;2022-08-19T14:04:05;6.03;;;0.67;;
23052;SDS011;11694;-36.632;-64.318;2022-08-19T14:06:33;6.43;;;0.87;;
23052;SDS011;11694;-36.632;-64.318;2022-08-19T14:09:00;1.50;;;0.50;;
23052;SDS011;11694;-36.632;-64.318;2022-08-19T14:11:28;4.10;;;0.70;;
23052;SDS011;11694;-36.632;-64.318;2022-08-19T14:13:56;2.67;;;1.20;;
23052;SDS011;11694;-36.632;-64.318;2022-08-19T14:16:23;2.33;;;1.10;;
23052;SDS011;11694;-36.632;-64.318;2022-08-19T14:18:50;1.90;;;0.80;;
23052;SDS011;11694;-36.632;-64.318;2022-08-19T14:21:20;5.33;;;0.93;;
23052;SDS011;11694;-36.632;-64.318;2022-08-19T14:23:49;8.13;;;0.80;;
23052;SDS011;11694;-36.632;-64.318;2022-08-19T14:26:17;3.53;;;0.90;;
23052;SDS011;11694;-36.632;-64.318;2022-08-19T14:28:45;3.50;;;1.10;;
23052;SDS011;11694;-36.632;-64.318;2022-08-19T14:31:14;6.83;;;0.87;;
23052;SDS011;11694;-36.632;-64.318;2022-08-19T14:33:45;3.87;;;0.70;;